createdAt,value
2018-10-11T00:00:07.731Z,89.43
2018-10-11T00:02:36.192Z,89.01
2018-10-11T00:05:05.492Z,89.53
2018-10-11T00:07:33.923Z,89.40
2018-10-11T00:10:02.369Z,88.44
2018-10-11T00:12:30.800Z,88.68
2018-10-11T00:15:00.150Z,88.79
2018-10-11T00:17:28.646Z,88.67
2018-10-11T00:19:57.151Z,89.27
2018-10-11T00:22:25.670Z,88.59
2018-10-11T00:24:54.189Z,89.76
2018-10-11T00:27:22.699Z,89.16
2018-10-11T00:29:51.153Z,88.77
2018-10-11T00:32:19.603Z,88.50
2018-10-11T00:34:48.047Z,89.04
2018-10-11T00:37:16.548Z,88.18
2018-10-11T00:39:45.100Z,88.42
2018-10-11T00:42:13.558Z,89.01
2018-10-11T00:44:42.025Z,90.01
2018-10-11T00:47:10.477Z,90.23
2018-10-11T00:49:38.957Z,90.62
2018-10-11T00:52:07.476Z,90.71
2018-10-11T00:54:36.236Z,90.31
2018-10-11T00:57:04.723Z,89.89
2018-10-11T00:59:33.197Z,90.01
2018-10-11T01:02:01.716Z,89.94
2018-10-11T01:04:30.212Z,89.72
2018-10-11T01:06:58.693Z,90.74
2018-10-11T01:09:27.166Z,92.48
2018-10-11T01:11:55.931Z,92.22
2018-10-11T01:14:24.381Z,92.77
2018-10-11T01:16:53.627Z,93.06
2018-10-11T01:19:22.079Z,92.13
2018-10-11T01:21:51.195Z,90.69
2018-10-11T01:24:19.637Z,91.06
2018-10-11T01:26:48.135Z,89.67
2018-10-11T01:29:16.582Z,88.97
2018-10-11T01:31:45.078Z,88.73
2018-10-11T01:34:14.197Z,90.48
2018-10-11T01:36:42.704Z,90.31
2018-10-11T01:39:11.211Z,89.70
2018-10-11T01:41:39.663Z,89.39
2018-10-11T01:44:08.107Z,89.19
2018-10-11T01:46:36.562Z,89.49
2018-10-11T01:49:05.077Z,89.64
2018-10-11T01:51:33.492Z,89.69
2018-10-11T01:54:01.985Z,88.66
2018-10-11T01:56:30.656Z,90.08
2018-10-11T01:58:59.096Z,89.78
2018-10-11T02:01:27.555Z,88.82
2018-10-11T02:03:55.997Z,88.83
2018-10-11T02:06:24.373Z,89.92
2018-10-11T02:08:52.823Z,91.33
2018-10-11T02:11:21.459Z,90.94
2018-10-11T02:13:49.933Z,90.03
2018-10-11T02:16:18.392Z,89.79
2018-10-11T02:18:47.049Z,89.20
2018-10-11T02:21:15.487Z,88.41
2018-10-11T02:23:44.255Z,90.26
2018-10-11T02:26:12.949Z,89.91
2018-10-11T02:28:41.417Z,90.42
2018-10-11T02:31:09.800Z,90.18
2018-10-11T02:33:38.316Z,91.73
2018-10-11T02:36:06.746Z,90.99
2018-10-11T02:38:35.767Z,90.39
2018-10-11T02:41:04.256Z,89.79
2018-10-11T02:43:32.747Z,90.78
2018-10-11T02:46:01.240Z,91.56
2018-10-11T02:48:29.678Z,88.83
2018-10-11T02:50:58.144Z,90.38
2018-10-11T02:53:26.721Z,90.09
2018-10-11T02:55:55.155Z,91.29
2018-10-11T02:58:34.986Z,90.90
2018-10-11T03:01:03.408Z,90.67
2018-10-11T03:03:32.599Z,90.54
2018-10-11T03:06:02.514Z,89.57
2018-10-11T03:08:30.995Z,88.23
2018-10-11T03:10:59.681Z,87.75
2018-10-11T03:13:28.604Z,88.49
2018-10-11T03:15:57.084Z,87.60
2018-10-11T03:18:25.524Z,87.49
2018-10-11T03:20:53.951Z,88.15
2018-10-11T03:23:22.380Z,87.80
2018-10-11T03:25:51.319Z,87.98
2018-10-11T03:28:19.743Z,88.76
2018-10-11T03:30:48.243Z,89.20
2018-10-11T03:33:16.800Z,90.56
2018-10-11T03:35:47.091Z,90.61
2018-10-11T03:38:15.539Z,90.19
2018-10-11T03:40:44.164Z,90.67
2018-10-11T03:43:12.626Z,88.94
2018-10-11T03:45:41.096Z,89.47
2018-10-11T03:48:09.528Z,89.37
2018-10-11T03:50:38.068Z,89.05
2018-10-11T03:53:06.669Z,91.28
2018-10-11T03:55:35.113Z,90.64
2018-10-11T03:58:03.565Z,90.21
2018-10-11T04:00:32.048Z,89.01
2018-10-11T04:03:00.465Z,89.95
2018-10-11T04:05:28.946Z,88.45
2018-10-11T04:07:57.351Z,88.04
2018-10-11T04:10:25.844Z,88.33
2018-10-11T04:12:54.315Z,88.62
2018-10-11T04:15:22.814Z,88.25
2018-10-11T04:17:51.294Z,88.84
2018-10-11T04:20:19.756Z,88.86
2018-10-11T04:22:49.224Z,88.57
2018-10-11T04:25:17.686Z,88.70
2018-10-11T04:27:46.102Z,88.59
2018-10-11T04:30:14.700Z,88.43
2018-10-11T04:32:43.844Z,88.92
2018-10-11T04:35:12.340Z,89.33
2018-10-11T04:37:41.002Z,88.50
2018-10-11T04:40:09.455Z,87.67
2018-10-11T04:42:37.981Z,87.25
2018-10-11T04:45:06.384Z,86.88
2018-10-11T04:47:35.239Z,87.88
2018-10-11T04:50:03.669Z,90.38
2018-10-11T04:52:32.123Z,90.81
2018-10-11T04:55:01.020Z,90.13
2018-10-11T04:57:29.484Z,89.52
2018-10-11T04:59:57.963Z,90.25
2018-10-11T05:02:26.959Z,89.33
2018-10-11T05:04:55.375Z,88.89
2018-10-11T05:07:23.961Z,87.14
2018-10-11T05:09:52.439Z,89.14
2018-10-11T05:12:20.956Z,88.90
2018-10-11T05:14:49.711Z,88.29
2018-10-11T05:17:18.202Z,88.25
2018-10-11T05:19:46.671Z,88.02
2018-10-11T05:22:15.171Z,88.92
2018-10-11T05:24:43.641Z,88.73
2018-10-11T05:27:12.132Z,88.71
2018-10-11T05:29:40.601Z,89.06
2018-10-11T05:32:09.160Z,89.65
2018-10-11T05:34:37.595Z,87.95
2018-10-11T05:37:06.280Z,87.85
2018-10-11T05:39:34.752Z,88.20
2018-10-11T05:42:03.220Z,88.43
2018-10-11T05:44:32.025Z,88.29
2018-10-11T05:47:01.732Z,88.26
2018-10-11T05:49:30.238Z,88.92
2018-10-11T05:51:58.721Z,89.61
2018-10-11T05:54:27.461Z,88.94
2018-10-11T05:56:55.954Z,88.54
2018-10-11T05:59:24.425Z,89.29
2018-10-11T06:01:52.855Z,88.99
2018-10-11T06:04:21.464Z,89.56
2018-10-11T06:06:50.415Z,88.15
2018-10-11T06:09:19.705Z,89.42
2018-10-11T06:11:48.180Z,90.17
2018-10-11T06:14:16.756Z,89.49
2018-10-11T06:16:45.280Z,89.20
2018-10-11T06:19:14.931Z,89.62
2018-10-11T06:21:43.763Z,88.28
2018-10-11T06:24:12.268Z,89.78
2018-10-11T06:26:42.049Z,90.68
2018-10-11T06:29:10.708Z,90.36
2018-10-11T06:31:39.213Z,87.80
2018-10-11T06:34:07.741Z,88.71
2018-10-11T06:36:36.451Z,88.14
2018-10-11T06:39:06.603Z,89.20
2018-10-11T06:41:35.092Z,89.32
2018-10-11T06:44:03.562Z,88.67
2018-10-11T06:46:31.948Z,89.56
2018-10-11T06:49:00.467Z,89.18
2018-10-11T06:51:29.035Z,87.71
2018-10-11T06:53:57.468Z,91.26
2018-10-11T06:56:25.921Z,88.71
2018-10-11T06:58:54.429Z,90.47
2018-10-11T07:01:23.456Z,91.54
2018-10-11T07:03:51.933Z,90.55
2018-10-11T07:06:22.336Z,91.89
2018-10-11T07:08:50.811Z,91.00
2018-10-11T07:11:19.633Z,88.86
2018-10-11T07:13:48.337Z,88.05
2018-10-11T07:16:16.813Z,90.90
2018-10-11T07:18:45.585Z,90.75
2018-10-11T07:21:14.466Z,90.76
2018-10-11T07:23:43.464Z,93.82
2018-10-11T07:26:11.914Z,91.45
2018-10-11T07:28:40.795Z,87.83
2018-10-11T07:31:09.490Z,85.32
2018-10-11T07:33:37.963Z,88.20
2018-10-11T07:36:06.413Z,88.81
2018-10-11T07:38:34.926Z,91.80
2018-10-11T07:41:03.414Z,89.03
2018-10-11T07:43:32.390Z,90.33
2018-10-11T07:46:01.606Z,87.88
2018-10-11T07:48:30.040Z,87.95
2018-10-11T07:50:58.493Z,85.40
2018-10-11T07:53:26.934Z,86.68
2018-10-11T07:55:55.433Z,86.21
2018-10-11T07:58:23.860Z,85.21
2018-10-11T08:00:52.311Z,84.48
2018-10-11T08:03:20.806Z,85.03
2018-10-11T08:05:49.220Z,85.86
2018-10-11T08:08:17.702Z,83.20
2018-10-11T08:10:46.223Z,85.68
2018-10-11T08:13:14.657Z,85.64
2018-10-11T08:15:43.186Z,86.18
2018-10-11T08:18:11.619Z,80.71
2018-10-11T08:20:40.834Z,82.29
2018-10-11T08:23:09.319Z,86.65
2018-10-11T08:25:38.251Z,83.94
2018-10-11T08:28:06.308Z,83.12
2018-10-11T08:30:35.367Z,82.08
2018-10-11T08:33:03.825Z,81.57
2018-10-11T08:35:32.317Z,80.80
2018-10-11T08:38:00.934Z,82.05
2018-10-11T08:40:29.200Z,78.96
2018-10-11T08:42:58.668Z,78.80
2018-10-11T08:45:27.205Z,75.14
2018-10-11T08:47:55.624Z,75.25
2018-10-11T08:50:24.162Z,75.86
2018-10-11T08:52:52.584Z,74.13
2018-10-11T08:55:21.739Z,74.86
2018-10-11T08:57:50.167Z,73.39
2018-10-11T09:00:18.659Z,73.72
2018-10-11T09:02:47.127Z,72.45
2018-10-11T09:05:15.627Z,70.71
2018-10-11T09:07:44.097Z,71.93
2018-10-11T09:10:12.624Z,71.76
2018-10-11T09:12:41.096Z,71.90
2018-10-11T09:15:09.773Z,73.76
2018-10-11T09:17:38.307Z,74.98
2018-10-11T09:20:06.764Z,73.72
2018-10-11T09:22:35.232Z,75.48
2018-10-11T09:25:03.689Z,74.83
2018-10-11T09:27:32.131Z,74.22
2018-10-11T09:30:01.356Z,72.39
2018-10-11T09:32:29.836Z,74.08
2018-10-11T09:34:58.312Z,73.97
2018-10-11T09:37:26.756Z,73.48
2018-10-11T09:39:55.251Z,73.56
2018-10-11T09:42:23.684Z,73.26
2018-10-11T09:44:52.103Z,69.56
2018-10-11T09:47:20.627Z,71.92
2018-10-11T09:49:49.090Z,73.28
2018-10-11T09:52:17.615Z,70.98
2018-10-11T09:54:46.076Z,67.02
2018-10-11T09:57:21.814Z,66.13
2018-10-11T09:59:50.451Z,65.50
2018-10-11T10:02:19.265Z,66.67
2018-10-11T10:04:48.940Z,69.99
2018-10-11T10:07:17.407Z,68.56
2018-10-11T10:09:46.525Z,68.40
2018-10-11T10:12:15.445Z,68.71
2018-10-11T10:14:44.600Z,68.38
2018-10-11T10:17:13.065Z,69.45
2018-10-11T10:19:42.093Z,69.03
2018-10-11T10:22:10.573Z,65.67
2018-10-11T10:24:39.198Z,61.91
2018-10-11T10:27:07.667Z,59.29
2018-10-11T10:29:36.251Z,56.60
2018-10-11T10:32:05.008Z,56.05
2018-10-11T10:34:33.477Z,55.49
2018-10-11T10:37:02.215Z,58.16
2018-10-11T10:39:30.650Z,56.08
2018-10-11T10:41:59.111Z,54.38
2018-10-11T10:44:27.631Z,55.84
2018-10-11T10:46:56.064Z,58.11
2018-10-11T10:49:25.672Z,56.30
2018-10-11T10:51:54.172Z,56.97
2018-10-11T10:54:28.128Z,59.30
2018-10-11T10:56:57.599Z,58.95
2018-10-11T10:59:26.206Z,59.67
2018-10-11T11:01:55.764Z,57.90
2018-10-11T11:04:24.479Z,60.97
2018-10-11T11:06:52.960Z,60.27
2018-10-11T11:09:21.457Z,59.02
2018-10-11T11:11:49.900Z,57.92
2018-10-11T11:14:18.576Z,58.65
2018-10-11T11:16:47.316Z,57.57
2018-10-11T11:19:16.431Z,60.71
2018-10-11T11:21:45.015Z,60.84
2018-10-11T11:24:13.479Z,62.01
2018-10-11T11:26:41.952Z,62.86
2018-10-11T11:29:10.441Z,60.89
2018-10-11T11:31:38.932Z,61.05
2018-10-11T11:34:07.444Z,63.64
2018-10-11T11:36:35.851Z,61.68
2018-10-11T11:39:05.977Z,62.17
2018-10-11T11:41:34.409Z,63.50
2018-10-11T11:44:02.871Z,62.47
2018-10-11T11:46:31.255Z,63.24
2018-10-11T11:48:59.647Z,63.85
2018-10-11T11:51:28.244Z,60.89
2018-10-11T11:53:56.644Z,61.33
2018-10-11T11:56:25.023Z,60.71
2018-10-11T11:58:53.408Z,59.76
2018-10-11T12:01:21.793Z,61.40
2018-10-11T12:03:50.213Z,59.45
2018-10-11T12:06:18.579Z,58.73
2018-10-11T12:08:47.102Z,59.68
2018-10-11T12:11:15.570Z,59.41
2018-10-11T12:13:44.026Z,59.22
2018-10-11T12:16:12.483Z,59.65
2018-10-11T12:18:40.943Z,59.22
2018-10-11T12:21:09.377Z,56.58
2018-10-11T12:23:38.015Z,56.84
2018-10-11T12:26:06.698Z,57.19
2018-10-11T12:28:35.182Z,58.35
2018-10-11T12:31:03.613Z,57.46
2018-10-11T12:33:32.228Z,57.76
2018-10-11T12:36:00.751Z,57.31
2018-10-11T12:38:29.220Z,56.12
2018-10-11T12:40:57.758Z,56.36
2018-10-11T12:43:26.237Z,57.93
2018-10-11T12:45:54.718Z,55.50
2018-10-11T12:48:23.584Z,55.63
2018-10-11T12:50:52.088Z,56.13
2018-10-11T12:53:22.596Z,55.62
2018-10-11T12:55:51.175Z,56.03
2018-10-11T12:58:20.186Z,57.04
2018-10-11T13:00:48.721Z,58.94
2018-10-11T13:03:17.293Z,58.38
2018-10-11T13:05:46.427Z,59.44
2018-10-11T13:08:14.925Z,59.90
2018-10-11T13:10:43.380Z,59.09
2018-10-11T13:13:11.986Z,59.02
2018-10-11T13:15:40.415Z,59.62
2018-10-11T13:18:08.847Z,60.97
2018-10-11T13:20:37.385Z,60.59
2018-10-11T13:23:09.776Z,60.36
2018-10-11T13:25:34.409Z,60.37
2018-10-11T13:28:02.831Z,59.17
2018-10-11T13:30:31.279Z,57.54
2018-10-11T13:33:00.323Z,58.45
2018-10-11T13:35:29.997Z,56.36
2018-10-11T13:37:58.432Z,56.44
2018-10-11T13:40:27.134Z,56.67
2018-10-11T13:42:55.571Z,56.13
2018-10-11T13:45:23.989Z,57.12
2018-10-11T13:47:52.392Z,57.02
2018-10-11T13:50:21.637Z,57.59
2018-10-11T13:52:50.141Z,55.48
2018-10-11T13:55:18.563Z,55.75
2018-10-11T13:57:47.042Z,55.65
2018-10-11T14:00:15.504Z,56.34
2018-10-11T14:02:44.002Z,56.28
2018-10-11T14:05:12.406Z,56.54
2018-10-11T14:07:40.832Z,55.94
2018-10-11T14:10:09.298Z,55.85
2018-10-11T14:12:37.732Z,54.96
2018-10-11T14:15:07.104Z,55.20
2018-10-11T14:17:35.583Z,55.94
2018-10-11T14:20:05.069Z,56.18
2018-10-11T14:22:33.495Z,56.06
2018-10-11T14:25:01.958Z,56.54
2018-10-11T14:27:30.403Z,56.61
2018-10-11T14:29:58.799Z,56.46
2018-10-11T14:32:27.239Z,57.71
2018-10-11T14:34:56.514Z,56.37
2018-10-11T14:37:24.980Z,55.95
2018-10-11T14:39:53.448Z,54.76
2018-10-11T14:42:22.624Z,55.26
2018-10-11T14:44:51.672Z,54.80
2018-10-11T14:47:21.025Z,53.85
2018-10-11T14:49:50.255Z,53.97
2018-10-11T14:52:18.983Z,53.97
2018-10-11T14:54:47.923Z,53.91
2018-10-11T14:57:16.486Z,54.65
2018-10-11T14:59:45.170Z,54.23
2018-10-11T15:02:14.717Z,54.18
2018-10-11T15:04:43.617Z,54.26
2018-10-11T15:07:12.478Z,55.35
2018-10-11T15:09:41.618Z,55.65
2018-10-11T15:12:10.307Z,55.62
2018-10-11T15:14:38.776Z,55.24
2018-10-11T15:17:08.354Z,56.21
2018-10-11T15:19:36.848Z,56.39
2018-10-11T15:22:06.228Z,57.46
2018-10-11T15:24:34.691Z,57.23
2018-10-11T15:27:03.152Z,58.07
2018-10-11T15:29:31.722Z,56.87
2018-10-11T15:32:00.220Z,56.72
2018-10-11T15:34:28.619Z,58.26
2018-10-11T15:36:57.168Z,57.25
2018-10-11T15:39:26.412Z,58.78
2018-10-11T15:41:55.871Z,58.97
2018-10-11T15:44:24.273Z,59.17
2018-10-11T15:46:52.851Z,59.27
2018-10-11T15:49:21.256Z,59.96
2018-10-11T15:51:49.704Z,61.31
2018-10-11T15:54:18.285Z,61.76
2018-10-11T15:56:46.736Z,63.60
2018-10-11T15:59:15.208Z,64.69
2018-10-11T16:01:43.636Z,65.80
2018-10-11T16:04:12.079Z,66.56
2018-10-11T16:08:04.912Z,67.08
2018-10-11T16:10:33.323Z,68.15
2018-10-11T16:13:02.487Z,69.47
2018-10-11T16:15:30.924Z,70.59
2018-10-11T16:17:59.452Z,70.40
2018-10-11T16:20:28.755Z,71.26
2018-10-11T16:22:57.948Z,71.77
2018-10-11T16:25:26.375Z,72.62
2018-10-11T16:27:54.825Z,73.44
2018-10-11T16:30:23.306Z,73.45
2018-10-11T16:32:51.785Z,73.28
2018-10-11T16:35:21.039Z,73.68
2018-10-11T16:37:49.571Z,74.44
2018-10-11T16:40:18.040Z,75.92
2018-10-11T16:42:46.940Z,76.72
2018-10-11T16:45:15.421Z,75.91
2018-10-11T16:47:43.858Z,77.12
2018-10-11T16:50:12.332Z,77.99
2018-10-11T16:52:41.361Z,78.98
2018-10-11T16:55:09.839Z,78.37
2018-10-11T16:57:39.707Z,79.21
2018-10-11T17:00:08.646Z,79.87
2018-10-11T17:02:37.337Z,79.67
2018-10-11T17:05:06.134Z,79.81
2018-10-11T17:07:34.721Z,80.89
2018-10-11T17:10:03.464Z,81.16
2018-10-11T17:12:32.234Z,82.23
2018-10-11T17:15:01.021Z,81.34
2018-10-11T17:17:29.570Z,81.83
2018-10-11T17:19:58.735Z,82.32
2018-10-11T17:22:27.245Z,82.82
2018-10-11T17:24:56.875Z,82.95
2018-10-11T17:27:26.360Z,83.17
2018-10-11T17:29:55.108Z,83.65
2018-10-11T17:32:23.531Z,84.03
2018-10-11T17:34:52.295Z,84.73
2018-10-11T17:37:20.735Z,84.67
2018-10-11T17:39:49.539Z,85.14
2018-10-11T17:42:18.057Z,84.49
2018-10-11T17:44:46.491Z,84.59
2018-10-11T17:47:14.914Z,85.23
2018-10-11T17:49:43.438Z,86.86
2018-10-11T17:52:11.921Z,86.79
2018-10-11T17:54:44.687Z,87.01
2018-10-11T17:57:13.136Z,87.00
2018-10-11T17:59:41.597Z,87.15
2018-10-11T18:02:10.196Z,86.12
2018-10-11T18:04:38.664Z,86.18
2018-10-11T18:07:07.264Z,86.91
2018-10-11T18:09:39.724Z,86.97
2018-10-11T18:12:10.741Z,87.17
2018-10-11T18:14:41.856Z,87.89
2018-10-11T18:17:10.354Z,89.57
2018-10-11T18:19:42.482Z,88.79
2018-10-11T18:22:12.517Z,88.23
2018-10-11T18:24:41.276Z,88.78
2018-10-11T18:27:09.861Z,89.52
2018-10-11T18:29:41.319Z,89.30
2018-10-11T18:32:11.217Z,88.78
2018-10-11T18:34:39.789Z,89.34
2018-10-11T18:37:08.184Z,89.83
2018-10-11T18:39:36.740Z,89.01
2018-10-11T18:42:05.187Z,88.86
2018-10-11T18:44:33.720Z,88.83
2018-10-11T18:47:03.468Z,88.43
2018-10-11T18:49:32.027Z,87.51
2018-10-11T18:52:00.593Z,87.69
2018-10-11T18:54:29.032Z,87.92
2018-10-11T18:56:58.232Z,88.59
2018-10-11T18:59:26.733Z,88.19
2018-10-11T19:01:55.179Z,88.29
2018-10-11T19:04:23.568Z,88.12
2018-10-11T19:06:53.024Z,89.20
2018-10-11T19:09:21.447Z,89.64
2018-10-11T19:11:50.488Z,89.32
2018-10-11T19:14:19.134Z,89.26
2018-10-11T19:16:47.543Z,89.62
2018-10-11T19:19:15.924Z,88.50
2018-10-11T19:21:44.333Z,88.29
2018-10-11T19:24:12.728Z,88.49
2018-10-11T19:26:41.311Z,88.58
2018-10-11T19:29:09.696Z,89.14
2018-10-11T19:31:38.101Z,89.77
2018-10-11T19:34:06.476Z,89.73
2018-10-11T19:36:34.855Z,90.46
2018-10-11T19:39:03.392Z,91.25
2018-10-11T19:41:31.796Z,90.13
2018-10-11T19:44:00.243Z,90.06
2018-10-11T19:46:28.732Z,90.70
2018-10-11T19:48:57.108Z,90.32
2018-10-11T19:51:26.265Z,90.73
2018-10-11T19:53:54.814Z,89.85
2018-10-11T19:56:23.200Z,90.51
2018-10-11T19:58:51.780Z,88.94
2018-10-11T20:01:20.971Z,89.51
2018-10-11T20:03:49.367Z,90.54
2018-10-11T20:06:17.888Z,89.94
2018-10-11T20:08:46.292Z,90.75
2018-10-11T20:11:14.725Z,91.40
2018-10-11T20:13:43.079Z,90.97
2018-10-11T20:16:12.173Z,90.97
2018-10-11T20:18:40.877Z,91.42
2018-10-11T20:21:09.287Z,91.33
2018-10-11T20:23:37.666Z,91.54
2018-10-11T20:26:06.131Z,91.75
2018-10-11T20:28:34.456Z,90.80
2018-10-11T20:31:02.852Z,91.80
2018-10-11T20:33:31.251Z,91.13
2018-10-11T20:35:59.615Z,90.81
2018-10-11T20:38:28.552Z,90.78
2018-10-11T20:40:56.941Z,91.04
2018-10-11T20:43:25.550Z,91.59
2018-10-11T20:45:53.903Z,90.66
2018-10-11T20:48:22.334Z,90.68
2018-10-11T20:50:50.720Z,90.29
2018-10-11T20:53:19.365Z,90.28
2018-10-11T20:55:47.736Z,90.87
2018-10-11T20:58:16.138Z,91.11
2018-10-11T21:00:44.514Z,90.98
2018-10-11T21:03:12.925Z,90.53
2018-10-11T21:05:41.389Z,90.52
2018-10-11T21:08:10.263Z,89.85
2018-10-11T21:10:38.632Z,90.62
2018-10-11T21:13:07.079Z,92.60
2018-10-11T21:15:35.497Z,93.28
2018-10-11T21:18:04.255Z,93.21
2018-10-11T21:20:33.201Z,92.86
2018-10-11T21:23:01.771Z,92.52
2018-10-11T21:25:30.195Z,92.08
2018-10-11T21:27:59.243Z,94.25
2018-10-11T21:30:27.731Z,91.76
2018-10-11T21:32:56.160Z,91.51
2018-10-11T21:35:24.618Z,92.53
2018-10-11T21:37:54.412Z,91.81
2018-10-11T21:40:22.954Z,92.66
2018-10-11T21:42:52.046Z,91.50
2018-10-11T21:45:20.504Z,92.02
2018-10-11T21:47:49.148Z,91.71
2018-10-11T21:50:18.692Z,92.53
2018-10-11T21:52:47.233Z,93.35
2018-10-11T21:55:15.725Z,93.49
2018-10-11T21:57:44.250Z,93.25
2018-10-11T22:00:12.729Z,92.72
2018-10-11T22:02:41.845Z,92.33
2018-10-11T22:05:11.263Z,92.56
2018-10-11T22:07:39.718Z,92.79
2018-10-11T22:10:09.001Z,92.44
2018-10-11T22:12:37.456Z,92.49
2018-10-11T22:15:06.314Z,92.42
2018-10-11T22:17:34.651Z,91.77
2018-10-11T22:20:03.140Z,93.03
2018-10-11T22:22:32.284Z,91.83
2018-10-11T22:25:00.796Z,91.50
2018-10-11T22:27:29.379Z,92.16
2018-10-11T22:29:57.898Z,91.84
2018-10-11T22:32:26.368Z,93.26
2018-10-11T22:34:54.800Z,92.98
2018-10-11T22:37:23.386Z,92.87
2018-10-11T22:39:51.911Z,93.22
2018-10-11T22:42:20.388Z,94.18
2018-10-11T22:44:48.821Z,93.79
2018-10-11T22:47:17.241Z,93.66
2018-10-11T22:49:45.700Z,93.16
2018-10-11T22:52:14.235Z,92.71
2018-10-11T22:54:42.782Z,91.92
2018-10-11T22:57:11.218Z,93.08
2018-10-11T22:59:40.403Z,93.25
2018-10-11T23:02:08.845Z,93.70
2018-10-11T23:04:37.328Z,93.35
2018-10-11T23:07:05.944Z,93.70
2018-10-11T23:09:34.376Z,93.58
2018-10-11T23:12:02.876Z,94.03
2018-10-11T23:14:31.390Z,93.52
2018-10-11T23:16:59.996Z,93.45
2018-10-11T23:19:28.438Z,93.10
2018-10-11T23:21:56.933Z,91.64
2018-10-11T23:24:25.979Z,92.34
2018-10-11T23:26:54.467Z,93.44
2018-10-11T23:29:23.018Z,94.32
2018-10-11T23:31:51.509Z,94.15
2018-10-11T23:34:19.951Z,93.16
2018-10-11T23:36:48.344Z,94.13
2018-10-11T23:39:16.780Z,92.78
2018-10-11T23:41:45.214Z,92.38
2018-10-11T23:44:13.647Z,92.75
2018-10-11T23:46:42.426Z,91.57
2018-10-11T23:49:11.506Z,91.53
2018-10-11T23:51:40.132Z,91.86
2018-10-11T23:54:08.952Z,92.39
2018-10-11T23:56:37.392Z,91.22
2018-10-11T23:59:05.837Z,91.50
